Time;durP1;ratioP1;P1;durP2;ratioP2;P2;SDS_P1;SDS_P2;PMS_P1;PMS_P2;Temp;Humidity;BMP_temperature;BMP_pressure;BME280_temperature;BME280_humidity;BME280_pressure;Samples;Min_cycle;Max_cycle;Signal;HPM_P1;HPM_P2
2023/07/21 00:01:17;;;;;;;4.70;3.03;;;;;;;28.67;54.10;98987.19;5071704;28;20191;-70
2023/07/21 00:03:44;;;;;;;4.37;3.37;;;;;;;28.65;52.98;98989.44;5071486;28;20656;-69
2023/07/21 00:06:12;;;;;;;5.60;3.23;;;;;;;28.66;52.07;98988.28;5071301;28;20195;-70
2023/07/21 00:08:39;;;;;;;3.57;3.20;;;;;;;28.64;53.40;98993.31;5071618;28;20286;-69
2023/07/21 00:11:06;;;;;;;4.90;2.67;;;;;;;28.75;51.18;98989.88;5071377;28;20253;-70
2023/07/21 00:13:35;;;;;;;4.10;2.87;;;;;;;28.82;52.24;98986.63;5071846;28;20196;-70
2023/07/21 00:16:04;;;;;;;2.83;2.63;;;;;;;28.83;49.52;99001.94;5071845;28;20200;-70
2023/07/21 00:18:33;;;;;;;7.03;3.10;;;;;;;28.63;49.46;98995.22;5072038;28;20195;-70
2023/07/21 00:21:00;;;;;;;7.60;3.20;;;;;;;28.53;49.91;98992.84;5071599;28;20200;-70
2023/07/21 00:23:27;;;;;;;4.83;3.20;;;;;;;28.26;50.67;98992.38;5071309;28;20655;-69
2023/07/21 00:25:54;;;;;;;4.40;3.03;;;;;;;28.16;51.01;98982.59;5071553;28;20224;-69
2023/07/21 00:28:21;;;;;;;3.53;3.23;;;;;;;28.05;51.42;98983.25;5071541;28;20279;-69
2023/07/21 00:30:48;;;;;;;3.27;2.97;;;;;;;28.03;51.14;98988.22;5071559;28;20567;-70
2023/07/21 00:33:15;;;;;;;4.50;3.10;;;;;;;27.81;52.00;98969.25;5072737;28;20324;-71
2023/07/21 00:35:43;;;;;;;3.87;2.93;;;;;;;27.76;52.49;98985.78;5075111;28;20234;-70
2023/07/21 00:38:09;;;;;;;6.80;3.00;;;;;;;27.72;52.89;98977.41;5074796;28;20663;-69
2023/07/21 00:40:38;;;;;;;4.00;3.10;;;;;;;27.79;52.55;98982.38;5075150;28;20621;-71
2023/07/21 00:43:05;;;;;;;3.57;2.90;;;;;;;27.84;52.22;98972.16;5075198;28;20200;-71
2023/07/21 00:45:36;;;;;;;5.67;3.30;;;;;;;27.83;52.61;98972.47;5074737;28;20249;-70
2023/07/21 00:48:04;;;;;;;3.33;3.03;;;;;;;27.86;52.17;98974.56;5074637;28;20617;-71
2023/07/21 00:50:30;;;;;;;4.13;2.80;;;;;;;27.65;52.89;98974.34;5074871;28;20192;-70
2023/07/21 00:52:59;;;;;;;3.77;3.20;;;;;;;27.56;53.26;98964.56;5074513;28;20667;-69
2023/07/21 00:55:26;;;;;;;3.30;3.00;;;;;;;27.57;53.68;98985.28;5074560;28;20198;-69
2023/07/21 00:57:53;;;;;;;9.33;3.73;;;;;;;27.51;53.39;98987.34;5074402;28;20580;-69
2023/07/21 01:00:20;;;;;;;5.43;3.17;;;;;;;27.61;53.09;98972.59;5074691;28;20223;-69
2023/07/21 01:02:49;;;;;;;5.40;3.40;;;;;;;27.47;53.83;98980.91;5074641;28;20192;-69
2023/07/21 01:05:17;;;;;;;5.33;3.17;;;;;;;27.45;53.33;98982.34;5074257;28;20241;-70
2023/07/21 01:07:44;;;;;;;4.80;3.13;;;;;;;27.40;53.48;98974.31;5074227;28;20196;-69
2023/07/21 01:10:13;;;;;;;5.10;3.57;;;;;;;27.45;53.94;98976.91;5074570;28;20269;-70
2023/07/21 01:12:40;;;;;;;5.37;3.17;;;;;;;27.41;53.89;98976.75;5074528;28;20241;-68
2023/07/21 01:15:09;;;;;;;4.73;2.90;;;;;;;27.48;53.53;98979.00;5074484;28;20192;-69
2023/07/21 01:17:36;;;;;;;4.47;3.20;;;;;;;27.48;54.36;98977.06;5074308;28;20200;-70
2023/07/21 01:20:04;;;;;;;5.77;3.27;;;;;;;27.61;54.39;98983.50;5074058;28;20254;-70
2023/07/21 01:22:37;;;;;;;5.77;3.10;;;;;;;27.75;54.25;98982.25;5074252;28;20207;-70
2023/07/21 01:25:10;;;;;;;3.97;3.17;;;;;;;27.88;54.13;98980.50;5074499;28;20184;-71
2023/07/21 01:27:40;;;;;;;4.60;2.90;;;;;;;27.98;53.88;98985.66;5074575;28;20188;-70
2023/07/21 01:30:10;;;;;;;4.47;3.17;;;;;;;28.08;54.21;98983.41;5074125;28;20199;-70
2023/07/21 01:32:40;;;;;;;3.30;2.90;;;;;;;28.21;53.74;98989.78;5074247;28;20275;-70
2023/07/21 01:35:09;;;;;;;5.50;3.30;;;;;;;28.35;52.10;98990.44;5073835;28;20269;-71
2023/07/21 01:37:37;;;;;;;5.87;3.00;;;;;;;28.42;51.96;98990.78;5074139;28;20192;-71
2023/07/21 01:40:09;;;;;;;4.43;3.10;;;;;;;28.55;52.49;98989.78;5074075;28;20224;-72
2023/07/21 01:42:36;;;;;;;3.37;2.93;;;;;;;28.57;51.53;98982.06;5074065;28;20257;-70
2023/07/21 01:45:04;;;;;;;4.20;3.37;;;;;;;28.64;51.74;98987.84;5073805;28;20203;-70
2023/07/21 01:47:32;;;;;;;4.77;3.37;;;;;;;28.68;51.47;98994.25;5073769;28;20196;-70
2023/07/21 01:50:00;;;;;;;4.27;3.00;;;;;;;28.70;51.60;98992.78;5073552;28;20246;-71
2023/07/21 01:52:27;;;;;;;6.17;3.27;;;;;;;28.65;51.80;98997.63;5073691;28;20253;-70
2023/07/21 01:55:09;;;;;;;6.83;3.20;;;;;;;28.57;52.20;99012.13;5073761;28;20192;-70
2023/07/21 01:57:41;;;;;;;8.77;3.40;;;;;;;28.46;52.65;99016.34;5073977;28;20190;-70
2023/07/21 02:00:10;;;;;;;7.67;3.43;;;;;;;28.43;52.56;99025.19;5073299;28;20691;-71
2023/07/21 02:02:38;;;;;;;9.17;4.27;;;;;;;28.37;52.56;99010.84;5073652;28;20196;-70
2023/07/21 02:05:05;;;;;;;6.80;3.40;;;;;;;28.40;53.59;99012.13;5073510;28;20204;-71
2023/07/21 02:07:32;;;;;;;3.27;2.93;;;;;;;28.45;53.23;99017.44;5054107;28;20193;-70
2023/07/21 02:09:59;;;;;;;5.30;3.23;;;;;;;28.45;53.09;99021.00;5053519;28;20192;-70
2023/07/21 02:12:26;;;;;;;4.23;3.17;;;;;;;28.44;53.02;99010.38;5053353;28;20250;-71
2023/07/21 02:14:54;;;;;;;9.27;3.07;;;;;;;28.32;53.55;99015.66;5053298;28;20246;-69
2023/07/21 02:17:21;;;;;;;8.20;3.27;;;;;;;28.18;54.06;99012.31;5053272;28;20583;-69
2023/07/21 02:19:47;;;;;;;4.20;3.27;;;;;;;28.10;54.16;99021.31;5053488;28;20369;-69
2023/07/21 02:22:14;;;;;;;4.50;3.10;;;;;;;28.00;54.49;99027.06;5053199;28;20243;-71
2023/07/21 02:24:41;;;;;;;5.53;3.50;;;;;;;27.89;54.47;99032.06;5053188;28;20242;-71
2023/07/21 02:27:09;;;;;;;4.80;3.87;;;;;;;27.77;54.73;99026.38;5052705;28;20197;-71
2023/07/21 02:29:35;;;;;;;4.87;3.27;;;;;;;27.71;55.01;99030.41;5053056;28;20390;-70
2023/07/21 02:32:04;;;;;;;4.43;3.27;;;;;;;27.62;55.52;99028.78;5052680;28;20193;-70
2023/07/21 02:34:30;;;;;;;8.87;3.40;;;;;;;27.59;55.93;99041.13;5053183;28;20669;-70
2023/07/21 02:36:57;;;;;;;3.53;3.23;;;;;;;27.56;56.12;99043.72;5052963;28;20196;-70
2023/07/21 02:39:26;;;;;;;3.50;3.20;;;;;;;27.51;56.49;99036.47;5052508;28;20228;-69
2023/07/21 02:41:52;;;;;;;9.03;3.23;;;;;;;27.41;56.50;99035.94;5052868;28;20247;-69
2023/07/21 02:44:20;;;;;;;5.80;3.50;;;;;;;27.49;56.19;99048.81;5052640;28;20623;-69
2023/07/21 02:46:47;;;;;;;8.03;3.50;;;;;;;27.48;56.38;99050.72;5052807;28;20201;-69
2023/07/21 02:49:16;;;;;;;9.03;3.97;;;;;;;27.43;56.39;99050.88;5052589;28;20200;-70
2023/07/21 02:51:43;;;;;;;7.07;3.77;;;;;;;27.38;56.36;99052.94;5052674;28;20672;-69
2023/07/21 02:54:10;;;;;;;10.97;4.20;;;;;;;27.30;56.94;99051.81;5052591;28;20247;-69
2023/07/21 02:56:37;;;;;;;3.87;3.13;;;;;;;27.32;57.42;99062.41;5052171;28;20258;-69
2023/07/21 02:59:04;;;;;;;10.00;3.77;;;;;;;27.23;57.37;99058.84;5052187;28;20664;-71
2023/07/21 03:01:31;;;;;;;6.27;3.47;;;;;;;27.25;57.32;99062.03;5052208;28;20559;-69
2023/07/21 03:03:58;;;;;;;3.40;3.20;;;;;;;27.21;57.34;99069.25;5052116;28;20196;-70
2023/07/21 03:06:30;;;;;;;4.90;4.00;;;;;;;27.19;57.44;99066.00;5062059;28;20192;-69
2023/07/21 03:08:57;;;;;;;4.90;3.97;;;;;;;27.18;57.68;99075.28;5072193;28;20618;-69
2023/07/21 03:11:23;;;;;;;7.77;3.70;;;;;;;27.16;58.00;99077.53;5072410;28;20200;-70
2023/07/21 03:13:50;;;;;;;8.80;3.87;;;;;;;27.10;57.66;99084.25;5072396;28;20188;-69
2023/07/21 03:16:17;;;;;;;6.10;3.93;;;;;;;27.17;58.73;99076.41;5072357;28;20274;-70
2023/07/21 03:18:44;;;;;;;7.80;4.47;;;;;;;27.17;58.04;99079.16;5072094;28;20225;-69
2023/07/21 03:21:10;;;;;;;8.80;4.00;;;;;;;27.18;57.90;99075.28;5072481;28;20226;-70
2023/07/21 03:23:39;;;;;;;10.93;4.50;;;;;;;27.31;57.75;99075.22;5072134;28;20617;-68
2023/07/21 03:26:05;;;;;;;5.97;4.00;;;;;;;27.52;57.85;99080.94;5072190;28;20192;-70
2023/07/21 03:28:32;;;;;;;19.00;4.60;;;;;;;27.56;56.66;99081.91;5072128;28;20261;-69
2023/07/21 03:30:59;;;;;;;11.73;4.90;;;;;;;27.69;56.27;99075.53;5072102;28;20238;-70
2023/07/21 03:33:26;;;;;;;16.67;4.30;;;;;;;27.82;56.02;99082.81;5071732;28;20192;-70
2023/07/21 03:36:01;;;;;;;15.13;4.90;;;;;;;27.89;55.58;99091.34;5072254;28;20223;-69
2023/07/21 03:38:29;;;;;;;11.97;4.67;;;;;;;27.92;55.83;99090.69;5071589;28;20716;-69
2023/07/21 03:41:04;;;;;;;19.03;4.57;;;;;;;28.00;54.97;99087.16;5071597;28;20279;-69
2023/07/21 03:43:32;;;;;;;6.57;3.83;;;;;;;28.12;55.33;99090.06;5071700;28;20199;-70
2023/07/21 03:45:59;;;;;;;19.03;4.53;;;;;;;28.15;54.07;99084.78;5071463;28;20258;-71
2023/07/21 03:48:26;;;;;;;27.23;5.47;;;;;;;28.29;53.59;99098.28;5071835;28;20195;-71
2023/07/21 03:50:58;;;;;;;14.00;4.80;;;;;;;28.06;53.64;99102.28;5071619;28;20375;-70
2023/07/21 03:53:26;;;;;;;23.13;4.97;;;;;;;27.96;54.52;99105.31;5071509;28;20184;-70
2023/07/21 03:55:53;;;;;;;9.17;4.00;;;;;;;27.99;54.82;99091.84;5071592;28;20230;-71
2023/07/21 03:58:22;;;;;;;11.00;4.80;;;;;;;28.18;54.88;99094.28;5072128;28;20195;-70
2023/07/21 04:00:49;;;;;;;23.93;5.47;;;;;;;28.41;54.00;99093.81;5072026;28;20215;-71
2023/07/21 04:03:17;;;;;;;22.13;5.03;;;;;;;28.61;53.85;99098.63;5071636;28;20199;-71
2023/07/21 04:05:44;;;;;;;15.13;4.87;;;;;;;28.75;53.41;99106.66;5067748;28;20199;-71
2023/07/21 04:08:10;;;;;;;15.83;5.00;;;;;;;28.98;53.20;99116.25;5052931;28;20598;-71
2023/07/21 04:10:40;;;;;;;17.80;4.80;;;;;;;29.38;51.42;99109.41;5055743;28;20250;-71
2023/07/21 04:13:08;;;;;;;21.30;5.50;;;;;;;29.87;50.35;99114.19;5055704;28;20224;-72
2023/07/21 04:15:36;;;;;;;11.60;4.80;;;;;;;30.59;46.73;99119.34;5055272;28;20250;-70
2023/07/21 04:18:03;;;;;;;7.83;3.97;;;;;;;31.34;45.06;99128.00;5055285;28;20199;-71
2023/07/21 04:20:30;;;;;;;7.60;3.97;;;;;;;32.09;43.08;99130.09;5055359;28;20739;-70
2023/07/21 04:22:57;;;;;;;11.93;4.50;;;;;;;32.83;41.44;99129.59;5055144;28;20605;-70
2023/07/21 04:25:23;;;;;;;13.00;3.93;;;;;;;33.37;39.57;99136.22;5055051;28;20223;-70
2023/07/21 04:27:53;;;;;;;7.00;3.63;;;;;;;33.87;38.16;99135.50;5055381;28;20246;-70
2023/07/21 04:30:20;;;;;;;6.87;3.23;;;;;;;34.54;37.07;99143.38;5055490;28;20204;-71
2023/07/21 04:32:48;;;;;;;6.55;3.80;;;;;;;35.10;35.96;99150.06;5055320;28;20200;-70
2023/07/21 04:35:16;;;;;;;7.40;4.25;;;;;;;35.63;34.47;99154.59;5055198;28;20289;-70
2023/07/21 04:37:43;;;;;;;10.00;3.63;;;;;;;35.91;33.51;99149.56;5055258;28;20189;-70
2023/07/21 04:40:11;;;;;;;8.30;4.20;;;;;;;36.08;33.22;99149.03;5053941;28;20536;-70
2023/07/21 04:42:37;;;;;;;4.13;3.17;;;;;;;36.60;32.47;99154.56;5055061;28;20314;-70
2023/07/21 04:45:06;;;;;;;16.08;4.90;;;;;;;37.01;31.25;99159.03;5054543;28;20196;-70
2023/07/21 04:47:32;;;;;;;10.07;3.72;;;;;;;37.19;30.98;99158.09;5055064;28;20192;-69
2023/07/21 04:50:00;;;;;;;18.00;4.50;;;;;;;37.66;30.35;99168.47;5054846;28;20250;-69
2023/07/21 04:52:27;;;;;;;8.60;3.65;;;;;;;37.97;29.59;99165.19;5054913;28;20192;-69
2023/07/21 04:54:54;;;;;;;8.15;3.60;;;;;;;38.01;29.79;99174.31;5054653;28;20193;-69
2023/07/21 04:57:20;;;;;;;6.15;3.67;;;;;;;38.26;29.68;99168.97;5054572;28;20197;-69
2023/07/21 04:59:47;;;;;;;8.30;3.90;;;;;;;38.41;29.30;99171.44;5054755;28;20202;-69
2023/07/21 05:02:14;;;;;;;5.47;3.20;;;;;;;38.48;29.54;99176.25;5054687;28;20246;-69
2023/07/21 05:04:40;;;;;;;4.65;3.53;;;;;;;38.78;28.83;99185.16;5054102;28;20193;-70
2023/07/21 05:07:08;;;;;;;8.30;3.53;;;;;;;38.89;28.32;99181.22;5070056;28;20215;-69
2023/07/21 05:09:35;;;;;;;7.65;3.60;;;;;;;39.13;27.96;99183.31;5074570;28;20199;-69
2023/07/21 05:12:02;;;;;;;7.60;3.67;;;;;;;39.34;27.71;99175.06;5074401;28;20199;-70
2023/07/21 05:14:29;;;;;;;4.15;3.58;;;;;;;39.16;28.31;99179.78;5074385;28;20269;-69
2023/07/21 05:16:55;;;;;;;7.05;3.60;;;;;;;39.46;28.12;99185.00;5074568;28;20254;-70
2023/07/21 05:19:22;;;;;;;10.20;3.45;;;;;;;39.52;27.72;99187.00;5073827;28;20244;-69
2023/07/21 05:21:49;;;;;;;8.60;3.67;;;;;;;39.62;27.68;99191.78;5074365;28;20220;-69
2023/07/21 05:24:17;;;;;;;7.95;3.90;;;;;;;39.70;27.57;99190.63;5073900;28;20655;-69
2023/07/21 05:26:43;;;;;;;15.35;4.25;;;;;;;39.94;27.32;99195.44;5074326;28;20261;-69
2023/07/21 05:29:10;;;;;;;7.72;4.35;;;;;;;39.30;27.88;99196.47;5074135;28;20278;-70
2023/07/21 05:31:37;;;;;;;10.27;4.35;;;;;;;39.27;28.15;99188.91;5074111;28;20196;-70
2023/07/21 05:34:07;;;;;;;4.43;4.03;;;;;;;39.42;28.20;99187.00;5073891;28;20630;-70
2023/07/21 05:36:34;;;;;;;7.05;4.70;;;;;;;39.41;27.92;99199.31;5074559;28;20206;-70
2023/07/21 05:39:00;;;;;;;8.23;4.07;;;;;;;39.71;27.90;99200.53;5074001;28;20192;-71
2023/07/21 05:41:28;;;;;;;7.20;3.92;;;;;;;39.77;27.45;99210.09;5073896;28;20223;-70
2023/07/21 05:43:55;;;;;;;11.55;4.00;;;;;;;39.72;27.54;99201.34;5073551;28;20192;-70
2023/07/21 05:46:22;;;;;;;9.00;4.10;;;;;;;39.65;27.65;99207.72;5073808;28;20583;-70
2023/07/21 05:48:48;;;;;;;9.20;3.70;;;;;;;39.72;27.59;99207.69;5073808;28;20265;-70
2023/07/21 05:51:17;;;;;;;14.07;4.88;;;;;;;39.90;27.25;99208.53;5073636;28;20265;-70
2023/07/21 05:53:43;;;;;;;8.95;4.25;;;;;;;39.95;27.52;99213.69;5073808;28;20573;-70
2023/07/21 05:56:11;;;;;;;5.30;3.80;;;;;;;39.98;27.48;99210.13;5073615;28;20299;-70
2023/07/21 05:58:39;;;;;;;13.45;4.15;;;;;;;39.99;26.87;99213.69;5073770;28;20199;-70
2023/07/21 06:01:06;;;;;;;9.32;3.88;;;;;;;39.96;27.15;99211.69;5073524;28;20286;-70
2023/07/21 06:03:32;;;;;;;6.45;3.78;;;;;;;40.15;27.21;99212.09;5073491;28;20667;-70
2023/07/21 06:05:59;;;;;;;8.82;4.28;;;;;;;40.49;26.39;99213.28;5067163;28;20556;-70
2023/07/21 06:08:26;;;;;;;7.95;3.70;;;;;;;40.89;26.05;99204.41;5053666;28;20201;-70
2023/07/21 06:10:55;;;;;;;13.13;3.95;;;;;;;40.43;26.14;99209.31;5053100;28;20231;-70
2023/07/21 06:13:22;;;;;;;6.10;3.85;;;;;;;40.47;26.40;99203.72;5053423;28;20274;-70
2023/07/21 06:15:50;;;;;;;10.18;4.03;;;;;;;40.59;26.57;99217.22;5053307;28;20192;-70
2023/07/21 06:18:17;;;;;;;12.85;4.00;;;;;;;40.51;26.48;99210.09;5053293;28;20246;-70
2023/07/21 06:20:44;;;;;;;9.00;3.60;;;;;;;40.61;25.93;99214.84;5053107;28;20220;-70
2023/07/21 06:23:11;;;;;;;8.45;4.10;;;;;;;40.45;26.87;99212.47;5052872;28;20197;-70
2023/07/21 06:25:38;;;;;;;16.52;4.40;;;;;;;40.95;25.69;99208.38;5053116;28;20212;-70
2023/07/21 06:28:05;;;;;;;12.38;4.63;;;;;;;40.47;26.52;99204.53;5052814;28;20202;-71
2023/07/21 06:30:31;;;;;;;10.52;4.07;;;;;;;40.44;26.87;99201.75;5052109;28;20192;-69
2023/07/21 06:32:59;;;;;;;15.32;3.47;;;;;;;39.99;27.27;99197.00;5053000;28;20192;-69
2023/07/21 06:35:26;;;;;;;10.90;4.03;;;;;;;39.86;27.07;99191.06;5052351;28;20282;-70
2023/07/21 06:37:53;;;;;;;11.50;4.53;;;;;;;40.01;26.79;99198.19;5053077;28;20189;-69
2023/07/21 06:40:19;;;;;;;6.88;4.00;;;;;;;39.88;26.86;99202.56;5052785;28;20189;-70
2023/07/21 06:42:47;;;;;;;8.50;4.50;;;;;;;39.62;27.53;99186.22;5052504;28;20193;-70
2023/07/21 06:45:14;;;;;;;11.27;4.20;;;;;;;39.56;27.26;99182.25;5052390;28;20193;-70
2023/07/21 06:47:40;;;;;;;6.78;3.78;;;;;;;39.81;27.33;99191.41;5052924;28;20271;-70
2023/07/21 06:50:09;;;;;;;13.25;3.90;;;;;;;39.82;27.37;99187.47;5052665;28;20189;-70
2023/07/21 06:52:36;;;;;;;20.70;4.53;;;;;;;39.52;26.96;99181.44;5052811;28;20196;-69
2023/07/21 06:55:04;;;;;;;9.45;4.38;;;;;;;39.68;27.36;99194.97;5052118;28;20196;-69
2023/07/21 06:57:30;;;;;;;12.45;4.40;;;;;;;39.86;27.13;99188.28;5052658;28;20224;-69
2023/07/21 06:59:57;;;;;;;7.22;3.97;;;;;;;40.10;26.66;99195.81;5052374;28;20262;-70
2023/07/21 07:02:24;;;;;;;10.60;4.20;;;;;;;40.20;26.36;99199.78;5052297;28;20227;-69
2023/07/21 07:04:54;;;;;;;6.32;3.83;;;;;;;39.82;27.04;99195.00;5052153;28;20250;-69
2023/07/21 07:07:22;;;;;;;13.88;4.82;;;;;;;39.87;27.35;99195.41;5069470;28;20188;-70
2023/07/21 07:09:48;;;;;;;5.13;4.13;;;;;;;39.90;27.22;99183.50;5072403;28;20253;-70
2023/07/21 07:12:15;;;;;;;6.55;4.15;;;;;;;40.21;26.64;99188.25;5071961;28;20679;-70
2023/07/21 07:14:44;;;;;;;7.60;4.78;;;;;;;40.52;26.61;99184.63;5072152;28;20622;-70
2023/07/21 07:17:12;;;;;;;9.57;4.25;;;;;;;40.83;25.51;99185.75;5072217;28;20374;-70
2023/07/21 07:19:39;;;;;;;12.82;4.65;;;;;;;40.84;25.63;99188.13;5072235;28;20188;-70
2023/07/21 07:22:08;;;;;;;11.52;4.30;;;;;;;40.48;25.75;99188.59;5071779;28;20710;-70
2023/07/21 07:24:36;;;;;;;4.75;3.92;;;;;;;40.01;26.48;99181.47;5072282;28;20192;-69
2023/07/21 07:27:03;;;;;;;10.65;5.00;;;;;;;40.02;27.21;99183.09;5071795;28;20254;-69
2023/07/21 07:29:30;;;;;;;16.02;5.05;;;;;;;40.04;27.21;99186.25;5071777;28;20196;-69
2023/07/21 07:31:57;;;;;;;7.50;4.82;;;;;;;40.34;26.86;99186.63;5072089;28;20253;-70
2023/07/21 07:34:24;;;;;;;9.57;4.28;;;;;;;40.42;26.36;99182.63;5072072;28;20285;-69
2023/07/21 07:36:51;;;;;;;8.68;4.57;;;;;;;40.27;27.12;99186.66;5072057;28;20219;-70
2023/07/21 07:39:18;;;;;;;12.80;5.03;;;;;;;40.23;25.99;99188.66;5072053;28;20275;-70
2023/07/21 07:41:49;;;;;;;14.98;5.00;;;;;;;40.10;26.41;99187.47;5073223;28;20226;-69
2023/07/21 07:44:16;;;;;;;11.25;5.20;;;;;;;40.16;26.88;99193.41;5078957;28;20202;-70
2023/07/21 07:46:43;;;;;;;10.77;4.53;;;;;;;40.08;26.23;99189.84;5078761;28;20202;-69
2023/07/21 07:49:10;;;;;;;11.20;4.60;;;;;;;40.18;26.04;99194.63;5078574;28;20223;-70
2023/07/21 07:51:38;;;;;;;11.55;4.25;;;;;;;39.70;26.85;99192.59;5078061;28;20694;-70
2023/07/21 07:54:05;;;;;;;13.02;5.07;;;;;;;39.29;27.53;99183.78;5078446;28;20194;-70
2023/07/21 07:56:32;;;;;;;9.45;4.70;;;;;;;38.88;27.94;99187.97;5078356;28;20196;-69
2023/07/21 07:59:00;;;;;;;7.68;4.28;;;;;;;38.98;27.57;99190.03;5078459;28;20195;-69
2023/07/21 08:01:27;;;;;;;9.07;4.50;;;;;;;39.23;27.14;99196.44;5078194;28;20230;-70
2023/07/21 08:03:54;;;;;;;6.15;4.13;;;;;;;39.44;26.81;99195.75;5078289;28;20192;-69
2023/07/21 08:06:22;;;;;;;6.60;4.28;;;;;;;39.55;26.81;99191.78;5078103;28;20196;-69
2023/07/21 08:08:48;;;;;;;7.43;4.18;;;;;;;39.49;26.51;99187.81;5078252;28;20223;-70
2023/07/21 08:11:15;;;;;;;3.95;3.60;;;;;;;39.38;26.16;99181.44;5077945;28;20195;-70
2023/07/21 08:13:42;;;;;;;5.68;3.85;;;;;;;39.71;25.63;99200.53;5078033;28;20192;-70
2023/07/21 08:16:12;;;;;;;6.40;3.97;;;;;;;39.70;24.81;99203.72;5078049;28;20192;-70
2023/07/21 08:18:38;;;;;;;9.13;4.20;;;;;;;39.93;25.29;99195.81;5078328;28;20188;-70
2023/07/21 08:21:17;;;;;;;5.32;3.20;;;;;;;39.93;23.91;99199.38;5077815;28;20196;-70
2023/07/21 08:23:44;;;;;;;4.43;3.60;;;;;;;39.55;23.75;99208.47;5078389;28;20267;-69
2023/07/21 08:26:11;;;;;;;3.78;3.17;;;;;;;39.56;23.60;99198.94;5077709;28;20196;-69
2023/07/21 08:28:38;;;;;;;5.22;3.33;;;;;;;39.61;24.07;99201.34;5077815;28;20663;-69
2023/07/21 08:31:04;;;;;;;5.07;3.60;;;;;;;39.65;23.96;99191.00;5078213;28;20192;-70
2023/07/21 08:33:32;;;;;;;8.40;4.30;;;;;;;39.71;24.04;99194.97;5078215;28;20249;-69
2023/07/21 08:35:59;;;;;;;4.25;3.58;;;;;;;39.92;24.03;99200.56;5077885;28;20227;-70
2023/07/21 08:38:26;;;;;;;5.28;3.47;;;;;;;39.97;24.02;99191.81;5077747;28;20196;-69
2023/07/21 08:41:02;;;;;;;7.88;3.10;;;;;;;39.90;23.75;99194.63;5078041;28;20277;-69
2023/07/21 08:43:29;;;;;;;3.50;3.03;;;;;;;39.54;24.27;99184.63;5077397;28;20183;-69
2023/07/21 08:45:59;;;;;;;7.30;4.57;;;;;;;39.08;25.14;99194.84;5077888;28;20257;-70
2023/07/21 08:48:26;;;;;;;6.35;4.20;;;;;;;38.79;25.74;99198.66;5077833;28;20234;-69
2023/07/21 08:50:55;;;;;;;5.38;4.32;;;;;;;39.00;25.99;99186.84;5077855;28;20188;-69
2023/07/21 08:53:24;;;;;;;11.27;4.57;;;;;;;38.64;25.78;99191.44;5076038;28;20278;-72
2023/07/21 08:55:53;;;;;;;4.35;3.92;;;;;;;38.51;26.19;99183.81;5074573;28;20192;-69
2023/07/21 08:58:20;;;;;;;5.03;3.75;;;;;;;38.85;25.37;99199.88;5074381;28;20223;-69
2023/07/21 09:00:47;;;;;;;4.38;3.50;;;;;;;39.12;25.31;99187.31;5074350;28;20706;-69
2023/07/21 09:03:21;;;;;;;4.88;3.97;;;;;;;39.16;25.97;99182.56;5074197;28;20626;-70
2023/07/21 09:05:49;;;;;;;12.98;3.83;;;;;;;38.34;27.50;99185.28;5074641;28;20191;-69
2023/07/21 09:08:21;;;;;;;5.40;3.80;;;;;;;37.32;28.19;99185.53;5074471;28;20192;-70
2023/07/21 09:10:48;;;;;;;4.68;3.88;;;;;;;37.54;28.76;99170.69;5074091;28;20257;-69
2023/07/21 09:13:16;;;;;;;7.30;4.40;;;;;;;37.61;28.96;99176.34;5074310;28;20250;-69
2023/07/21 09:15:51;;;;;;;7.78;6.55;;;;;;;37.44;28.48;99175.00;5074071;28;20671;-69
2023/07/21 09:18:18;;;;;;;6.40;5.60;;;;;;;37.74;27.81;99186.78;5074418;28;20218;-69
2023/07/21 09:20:46;;;;;;;5.30;4.00;;;;;;;37.73;27.43;99179.66;5074232;28;20188;-69
2023/07/21 09:23:13;;;;;;;8.27;6.07;;;;;;;37.71;27.95;99170.91;5073886;28;20645;-70
2023/07/21 09:25:51;;;;;;;4.30;3.90;;;;;;;37.95;27.62;99175.03;5074112;28;20188;-69
2023/07/21 09:28:17;;;;;;;5.20;3.33;;;;;;;37.36;27.49;99180.84;5074243;28;20193;-70
2023/07/21 09:30:50;;;;;;;5.07;3.53;;;;;;;37.51;27.44;99163.94;5073997;28;20199;-69
2023/07/21 09:33:22;;;;;;;9.60;3.60;;;;;;;37.49;28.20;99180.19;5073388;28;20192;-70
2023/07/21 09:35:49;;;;;;;6.43;3.55;;;;;;;37.74;27.82;99174.88;5073900;28;20602;-69
2023/07/21 09:38:16;;;;;;;4.88;3.45;;;;;;;37.69;27.34;99162.19;5074063;28;20275;-69
2023/07/21 09:40:43;;;;;;;6.40;3.67;;;;;;;37.54;27.46;99160.41;5073687;28;20192;-69
2023/07/21 09:43:11;;;;;;;7.80;3.80;;;;;;;37.77;27.66;99154.69;5073857;28;20220;-69
2023/07/21 09:45:38;;;;;;;7.00;3.80;;;;;;;37.94;27.09;99143.75;5073512;28;20204;-69
2023/07/21 09:48:06;;;;;;;4.30;3.63;;;;;;;38.28;26.22;99161.84;5073836;28;20195;-70
2023/07/21 09:50:33;;;;;;;7.20;3.17;;;;;;;38.49;26.03;99150.88;5073455;28;20656;-69
2023/07/21 09:53:03;;;;;;;3.67;3.38;;;;;;;38.55;25.32;99157.66;5073655;28;20261;-69
2023/07/21 09:55:36;;;;;;;41.60;5.85;;;;;;;38.20;25.56;99160.19;5073518;28;20184;-69
2023/07/21 09:58:07;;;;;;;4.10;3.10;;;;;;;38.43;25.49;99169.06;5073135;28;20644;-69
2023/07/21 10:00:39;;;;;;;4.85;3.55;;;;;;;38.43;25.57;99157.16;5073400;28;20657;-69
2023/07/21 10:03:07;;;;;;;5.53;3.33;;;;;;;38.66;24.94;99158.50;5073524;28;20215;-69
2023/07/21 10:05:34;;;;;;;4.60;2.95;;;;;;;38.41;24.60;99160.31;5069653;28;20188;-70
2023/07/21 10:08:03;;;;;;;4.30;2.90;;;;;;;37.96;25.35;99154.47;5053090;28;20197;-69
2023/07/21 10:10:31;;;;;;;3.38;3.00;;;;;;;38.06;25.68;99143.47;5053515;28;20200;-69
2023/07/21 10:13:05;;;;;;;3.92;3.60;;;;;;;38.23;25.19;99153.06;5052836;28;20197;-69
2023/07/21 10:15:33;;;;;;;4.25;3.58;;;;;;;38.50;25.20;99141.34;5053678;28;20647;-69
2023/07/21 10:18:03;;;;;;;11.60;3.47;;;;;;;38.53;25.17;99148.13;5052786;28;20223;-69
2023/07/21 10:20:49;;;;;;;9.73;3.75;;;;;;;38.42;25.24;99150.84;5053374;28;20623;-69
2023/07/21 10:23:17;;;;;;;4.45;2.80;;;;;;;38.68;24.93;99131.16;5052640;28;20213;-69
2023/07/21 10:26:02;;;;;;;5.60;3.17;;;;;;;38.56;25.15;99139.81;5053641;28;20197;-69
2023/07/21 10:28:34;;;;;;;5.00;3.20;;;;;;;38.69;25.42;99137.47;5053135;28;20199;-71
2023/07/21 10:31:29;;;;;;;3.17;2.97;;;;;;;38.68;25.61;99138.66;5052837;28;20189;-69
2023/07/21 10:34:04;;;;;;;6.05;3.17;;;;;;;37.96;25.95;99126.72;5052624;28;20192;-70
2023/07/21 10:36:50;;;;;;;5.28;3.17;;;;;;;38.18;25.15;99123.72;5052962;28;20192;-72
2023/07/21 10:39:19;;;;;;;5.00;2.83;;;;;;;38.42;24.88;99130.59;5052370;28;20184;-70
2023/07/21 10:41:46;;;;;;;4.97;2.78;;;;;;;38.51;24.62;99131.88;5053011;28;20189;-69
2023/07/21 10:44:13;;;;;;;4.05;2.83;;;;;;;38.35;25.46;99123.03;5052575;28;20196;-70
2023/07/21 10:46:41;;;;;;;3.40;3.17;;;;;;;38.57;25.61;99135.06;5052939;28;20192;-69
2023/07/21 10:49:10;;;;;;;5.43;3.40;;;;;;;38.71;25.28;99141.47;5052775;28;20242;-69
2023/07/21 10:51:39;;;;;;;7.55;3.13;;;;;;;38.73;25.52;99127.97;5052411;28;20200;-69
2023/07/21 10:54:06;;;;;;;4.40;3.30;;;;;;;38.81;25.27;99121.25;5052715;28;20189;-70
2023/07/21 10:56:34;;;;;;;5.15;3.53;;;;;;;38.94;25.22;99105.84;5052242;28;20656;-69
2023/07/21 10:59:01;;;;;;;4.80;3.15;;;;;;;38.96;24.98;99120.16;5052525;28;20192;-69
2023/07/21 11:01:28;;;;;;;3.88;3.58;;;;;;;38.88;24.99;99121.28;5052231;28;20734;-69
2023/07/21 11:03:54;;;;;;;4.35;3.28;;;;;;;38.92;24.85;99108.25;5052402;28;20282;-69
2023/07/21 11:06:23;;;;;;;3.35;2.97;;;;;;;38.99;24.85;99108.25;5061276;28;20195;-69
2023/07/21 11:08:50;;;;;;;5.75;3.45;;;;;;;38.99;24.48;99102.69;5072066;28;20227;-70
2023/07/21 11:11:17;;;;;;;3.75;3.45;;;;;;;38.86;24.53;99097.88;5071998;28;20686;-70
2023/07/21 11:13:43;;;;;;;3.13;2.88;;;;;;;38.86;24.81;99120.09;5072250;28;20208;-70
2023/07/21 11:16:10;;;;;;;9.90;3.53;;;;;;;38.52;24.97;99099.31;5071896;28;20623;-70
2023/07/21 11:18:41;;;;;;;3.80;3.47;;;;;;;38.09;25.62;99092.72;5071659;28;20192;-69
2023/07/21 11:21:08;;;;;;;5.63;3.65;;;;;;;37.56;26.44;99090.72;5072243;28;20725;-70
2023/07/21 11:23:37;;;;;;;3.95;3.50;;;;;;;37.48;26.64;99089.88;5072106;28;20219;-70
2023/07/21 11:26:06;;;;;;;5.00;3.50;;;;;;;37.80;26.27;99082.59;5072128;28;20199;-72
2023/07/21 11:28:33;;;;;;;4.80;3.47;;;;;;;37.95;25.86;99069.63;5071767;28;20700;-69
2023/07/21 11:31:01;;;;;;;7.13;3.65;;;;;;;38.03;25.22;99083.19;5072178;28;20246;-70
2023/07/21 11:33:42;;;;;;;5.53;3.22;;;;;;;38.22;25.38;99071.00;5072085;28;20290;-70
2023/07/21 11:36:16;;;;;;;3.65;3.33;;;;;;;38.23;25.18;99078.94;5072323;28;20228;-69